createdAt,value
2023-05-20T00:01:38.247Z,100522.59
2023-05-20T00:04:05.206Z,100520.55
2023-05-20T00:06:33.141Z,100517.67
2023-05-20T00:08:59.977Z,100520.17
2023-05-20T00:11:27.200Z,100515.45
2023-05-20T00:13:53.892Z,100513.31
2023-05-20T00:16:20.553Z,100510.70
2023-05-20T00:18:47.258Z,100509.74
2023-05-20T00:21:14.003Z,100513.56
2023-05-20T00:23:40.698Z,100510.73
2023-05-20T00:26:07.347Z,100515.42
2023-05-20T00:28:34.471Z,100516.09
2023-05-20T00:31:01.272Z,100516.88
2023-05-20T00:33:28.118Z,100517.28
2023-05-20T00:35:55.080Z,100517.44
2023-05-20T00:38:21.776Z,100515.29
2023-05-20T00:40:48.516Z,100518.06
2023-05-20T00:43:15.638Z,100518.60
2023-05-20T00:45:42.368Z,100521.21
2023-05-20T00:48:09.154Z,100514.41
2023-05-20T00:50:35.883Z,100517.77
2023-05-20T00:53:02.943Z,100521.16
2023-05-20T00:55:30.048Z,100519.70
2023-05-20T00:57:57.280Z,100519.29
2023-05-20T01:00:24.126Z,100517.80
2023-05-20T01:02:51.610Z,100519.68
2023-05-20T01:05:18.680Z,100517.51
2023-05-20T01:07:47.608Z,100516.95
2023-05-20T01:10:14.338Z,100513.91
2023-05-20T01:13:03.419Z,100510.27
2023-05-20T01:15:30.342Z,100509.80
2023-05-20T01:18:01.753Z,100509.86
2023-05-20T01:20:31.883Z,100507.91
2023-05-20T01:22:59.020Z,100507.61
2023-05-20T01:25:25.859Z,100512.24
2023-05-20T01:27:54.562Z,100510.60
2023-05-20T01:30:21.708Z,100507.42
2023-05-20T01:32:52.323Z,100510.66
2023-05-20T01:35:20.111Z,100506.09
2023-05-20T01:37:46.737Z,100510.81
2023-05-20T01:40:16.304Z,100509.09
2023-05-20T01:42:43.317Z,100507.29
2023-05-20T01:45:11.030Z,100512.45
2023-05-20T01:47:40.162Z,100509.90
2023-05-20T01:50:07.844Z,100513.55
2023-05-20T01:52:36.388Z,100518.38
2023-05-20T01:55:03.330Z,100518.08
2023-05-20T01:57:30.424Z,100519.23
2023-05-20T01:59:57.065Z,100519.55
2023-05-20T02:02:23.734Z,100516.73
2023-05-20T02:04:51.180Z,100518.22
2023-05-20T02:07:18.198Z,100520.45
2023-05-20T02:09:45.821Z,100522.19
2023-05-20T02:12:16.516Z,100520.72
2023-05-20T02:14:45.277Z,100519.70
2023-05-20T02:17:16.183Z,100518.95
2023-05-20T02:19:46.037Z,100516.63
2023-05-20T02:22:14.144Z,100522.30
2023-05-20T02:24:43.860Z,100521.63
2023-05-20T02:27:10.711Z,100521.38
2023-05-20T02:29:37.758Z,100526.52
2023-05-20T02:32:05.122Z,100522.83
2023-05-20T02:34:33.351Z,100521.80
2023-05-20T02:37:00.799Z,100519.68
2023-05-20T02:39:28.144Z,100518.22
2023-05-20T02:41:56.119Z,100520.48
2023-05-20T02:44:23.184Z,100524.27
2023-05-20T02:46:50.049Z,100524.16
2023-05-20T02:49:16.751Z,100527.02
2023-05-20T02:51:43.416Z,100527.77
2023-05-20T02:54:10.298Z,100536.05
2023-05-20T02:56:36.889Z,100538.72
2023-05-20T02:59:04.370Z,100540.73
2023-05-20T03:01:33.121Z,100536.87
2023-05-20T03:04:02.313Z,100545.87
2023-05-20T03:06:32.270Z,100547.79
2023-05-20T03:08:59.090Z,100548.42
2023-05-20T03:11:26.049Z,100553.17
2023-05-20T03:13:53.046Z,100556.97
2023-05-20T03:16:19.637Z,100555.88
2023-05-20T03:18:49.050Z,100555.38
2023-05-20T03:21:17.391Z,100556.06
2023-05-20T03:23:44.004Z,100554.98
2023-05-20T03:26:10.936Z,100553.60
2023-05-20T03:28:37.743Z,100554.75
2023-05-20T03:31:04.858Z,100552.73
2023-05-20T03:33:34.447Z,100558.92
2023-05-20T03:36:02.009Z,100555.08
2023-05-20T03:38:29.883Z,100554.96
2023-05-20T03:40:56.583Z,100555.83
2023-05-20T03:44:54.007Z,100554.71
2023-05-20T03:47:20.908Z,100554.98
2023-05-20T03:49:47.783Z,100553.81
2023-05-20T03:52:14.707Z,100553.77
2023-05-20T03:54:41.752Z,100550.46
2023-05-20T03:57:10.637Z,100553.15
2023-05-20T03:59:37.747Z,100556.29
2023-05-20T04:02:05.280Z,100559.77
2023-05-20T04:04:32.362Z,100559.81
2023-05-20T04:07:02.015Z,100560.73
2023-05-20T04:09:29.281Z,100556.85
2023-05-20T04:11:56.137Z,100559.25
2023-05-20T04:14:23.058Z,100562.16
2023-05-20T04:16:50.462Z,100562.99
2023-05-20T04:19:19.738Z,100573.02
2023-05-20T04:21:46.665Z,100572.45
2023-05-20T04:24:14.696Z,100571.46
2023-05-20T04:26:41.773Z,100576.27
2023-05-20T04:29:08.565Z,100581.50
2023-05-20T04:31:36.086Z,100580.75
2023-05-20T04:34:02.932Z,100580.28
2023-05-20T04:36:30.754Z,100578.35
2023-05-20T04:38:58.391Z,100578.17
2023-05-20T04:41:25.334Z,100575.36
2023-05-20T04:43:52.159Z,100581.02
2023-05-20T04:46:20.696Z,100584.25
2023-05-20T04:48:48.206Z,100587.37
2023-05-20T04:51:15.109Z,100590.67
2023-05-20T04:53:43.222Z,100588.66
2023-05-20T04:56:12.162Z,100590.28
2023-05-20T04:58:39.783Z,100588.91
2023-05-20T05:01:07.518Z,100587.65
2023-05-20T05:03:36.539Z,100587.62
2023-05-20T05:06:03.696Z,100586.95
2023-05-20T05:08:30.776Z,100588.37
2023-05-20T05:10:58.556Z,100586.42
2023-05-20T05:13:25.735Z,100581.54
2023-05-20T05:16:00.965Z,100577.58
2023-05-20T05:18:28.787Z,100576.27
2023-05-20T05:21:05.631Z,100578.95
2023-05-20T05:23:33.056Z,100579.75
2023-05-20T05:25:59.899Z,100580.56
2023-05-20T05:28:27.494Z,100586.44
2023-05-20T05:30:55.540Z,100586.05
2023-05-20T05:33:22.539Z,100590.40
2023-05-20T05:35:49.467Z,100589.42
2023-05-20T05:38:16.682Z,100593.52
2023-05-20T05:40:43.512Z,100588.05
2023-05-20T05:43:11.158Z,100594.34
2023-05-20T05:45:38.980Z,100597.14
2023-05-20T05:48:05.912Z,100593.95
2023-05-20T05:50:32.966Z,100592.41
2023-05-20T05:52:59.846Z,100591.36
2023-05-20T05:55:26.781Z,100593.33
2023-05-20T05:57:54.232Z,100593.50
2023-05-20T06:00:22.229Z,100591.65
2023-05-20T06:02:49.359Z,100593.63
2023-05-20T06:05:29.376Z,100596.39
2023-05-20T06:07:56.806Z,100591.83
2023-05-20T06:10:24.066Z,100589.50
2023-05-20T06:12:50.908Z,100588.05
2023-05-20T06:15:18.510Z,100582.09
2023-05-20T06:17:45.923Z,100585.08
2023-05-20T06:20:13.693Z,100583.98
2023-05-20T06:22:40.869Z,100584.31
2023-05-20T06:25:09.433Z,100585.06
2023-05-20T06:27:36.892Z,100582.77
2023-05-20T06:30:08.382Z,100583.02
2023-05-20T06:32:35.245Z,100579.64
2023-05-20T06:35:02.672Z,100579.40
2023-05-20T06:37:30.331Z,100581.73
2023-05-20T06:39:57.520Z,100578.60
2023-05-20T06:42:24.632Z,100580.14
2023-05-20T06:45:03.391Z,100574.77
2023-05-20T06:47:41.454Z,100578.01
2023-05-20T06:50:09.630Z,100583.05
2023-05-20T06:52:36.502Z,100583.01
2023-05-20T06:55:05.804Z,100583.89
2023-05-20T06:57:33.862Z,100583.15
2023-05-20T07:00:00.853Z,100579.40
2023-05-20T07:02:27.755Z,100582.27
2023-05-20T07:04:54.552Z,100584.69
2023-05-20T07:07:21.339Z,100580.09
2023-05-20T07:09:48.150Z,100580.31
2023-05-20T07:12:15.543Z,100577.16
2023-05-20T07:14:42.925Z,100575.09
2023-05-20T07:17:11.360Z,100579.70
2023-05-20T07:19:38.482Z,100581.44
2023-05-20T07:22:05.311Z,100572.16
2023-05-20T07:24:42.462Z,100578.27
2023-05-20T07:27:10.028Z,100575.48
2023-05-20T07:29:37.150Z,100575.87
2023-05-20T07:32:05.571Z,100580.52
2023-05-20T07:34:33.517Z,100580.14
2023-05-20T07:37:00.332Z,100586.33
2023-05-20T07:39:27.662Z,100585.45
2023-05-20T07:41:54.580Z,100588.09
2023-05-20T07:44:24.336Z,100583.40
2023-05-20T07:46:52.627Z,100585.06
2023-05-20T07:49:20.334Z,100584.35
2023-05-20T07:51:47.821Z,100577.25
2023-05-20T07:54:16.317Z,100578.54
2023-05-20T07:56:46.541Z,100579.76
2023-05-20T07:59:13.890Z,100579.64
2023-05-20T08:01:44.177Z,100580.30
2023-05-20T08:04:11.994Z,100578.30
2023-05-20T08:06:39.927Z,100578.13
2023-05-20T08:09:08.118Z,100581.17
2023-05-20T08:11:37.011Z,100578.41
2023-05-20T08:14:04.147Z,100570.50
2023-05-20T08:16:36.439Z,100574.35
2023-05-20T08:19:03.455Z,100571.41
2023-05-20T08:21:30.251Z,100566.35
2023-05-20T08:23:57.600Z,100572.22
2023-05-20T08:26:24.582Z,100572.35
2023-05-20T08:28:51.548Z,100570.33
2023-05-20T08:31:19.388Z,100573.44
2023-05-20T08:33:46.271Z,100576.91
2023-05-20T08:36:13.790Z,100575.60
2023-05-20T08:38:40.919Z,100565.58
2023-05-20T08:41:07.712Z,100571.45
2023-05-20T08:43:34.932Z,100576.98
2023-05-20T08:46:03.670Z,100564.62
2023-05-20T08:48:32.023Z,100560.84
2023-05-20T08:50:59.296Z,100557.23
2023-05-20T08:53:26.878Z,100559.98
2023-05-20T08:56:00.945Z,100559.77
2023-05-20T08:58:29.563Z,100557.70
2023-05-20T09:00:56.739Z,100552.29
2023-05-20T09:03:24.479Z,100557.14
2023-05-20T09:05:52.529Z,100555.85
2023-05-20T09:08:20.232Z,100543.44
2023-05-20T09:10:47.015Z,100550.48
2023-05-20T09:13:13.859Z,100547.48
2023-05-20T09:15:41.521Z,100549.85
2023-05-20T09:18:09.099Z,100556.05
2023-05-20T09:20:37.431Z,100559.42
2023-05-20T09:23:06.570Z,100556.33
2023-05-20T09:25:33.939Z,100548.45
2023-05-20T09:28:01.206Z,100544.06
2023-05-20T09:30:28.229Z,100550.86
2023-05-20T09:33:00.978Z,100554.55
2023-05-20T09:35:28.334Z,100555.67
2023-05-20T09:37:57.061Z,100549.42
2023-05-20T09:40:26.382Z,100547.55
2023-05-20T09:42:55.016Z,100548.17
2023-05-20T09:45:22.653Z,100552.63
2023-05-20T09:47:51.225Z,100554.85
2023-05-20T09:50:21.005Z,100548.57
2023-05-20T09:52:49.801Z,100553.23
2023-05-20T09:55:17.885Z,100545.22
2023-05-20T09:57:45.193Z,100546.89
2023-05-20T10:00:17.638Z,100547.04
2023-05-20T10:02:46.080Z,100550.79
2023-05-20T10:05:33.731Z,100545.27
2023-05-20T10:08:26.538Z,100550.64
2023-05-20T10:11:08.290Z,100544.59
2023-05-20T10:13:57.095Z,100549.41
2023-05-20T10:16:33.115Z,100548.16
2023-05-20T10:19:22.241Z,100538.71
2023-05-20T10:22:02.859Z,100538.34
2023-05-20T10:24:38.243Z,100535.60
2023-05-20T10:27:07.911Z,100531.59
2023-05-20T10:32:29.546Z,100526.23
2023-05-20T10:35:20.756Z,100529.95
2023-05-20T10:37:49.209Z,100526.86
2023-05-20T10:40:18.668Z,100529.01
2023-05-20T10:42:48.103Z,100531.14
2023-05-20T10:45:30.126Z,100526.94
2023-05-20T10:47:59.098Z,100527.16
2023-05-20T10:50:36.282Z,100522.25
2023-05-20T10:53:11.026Z,100523.77
2023-05-20T10:55:41.782Z,100523.38
2023-05-20T10:58:10.866Z,100517.45
2023-05-20T11:00:38.078Z,100522.02
2023-05-20T11:03:05.930Z,100521.98
2023-05-20T11:05:33.403Z,100519.59
2023-05-20T11:08:07.947Z,100517.48
2023-05-20T11:10:37.972Z,100525.17
2023-05-20T11:13:05.881Z,100529.54
2023-05-20T11:15:34.250Z,100526.71
2023-05-20T11:18:02.749Z,100533.13
2023-05-20T11:20:30.301Z,100525.84
2023-05-20T11:22:57.124Z,100521.40
2023-05-20T11:25:24.206Z,100526.16
2023-05-20T11:27:52.041Z,100523.07
2023-05-20T11:30:20.153Z,100521.95
2023-05-20T11:32:59.626Z,100513.30
2023-05-20T11:35:29.030Z,100516.21
2023-05-20T11:38:04.070Z,100522.23
2023-05-20T11:40:38.899Z,100515.93
2023-05-20T11:43:14.364Z,100512.01
2023-05-20T11:45:48.202Z,100512.65
2023-05-20T11:48:17.920Z,100511.77
2023-05-20T11:50:46.357Z,100511.33
2023-05-20T11:53:18.073Z,100511.51
2023-05-20T11:55:51.520Z,100509.53
2023-05-20T11:58:29.747Z,100507.20
2023-05-20T12:01:05.222Z,100502.52
2023-05-20T12:03:41.407Z,100498.89
2023-05-20T12:06:08.525Z,100493.69
2023-05-20T12:08:35.338Z,100494.67
2023-05-20T12:11:02.373Z,100492.54
2023-05-20T12:13:29.214Z,100490.52
2023-05-20T12:15:56.081Z,100492.99
2023-05-20T12:18:22.950Z,100485.18
2023-05-20T12:20:49.741Z,100483.73
2023-05-20T12:23:16.546Z,100482.52
2023-05-20T12:25:46.751Z,100483.08
2023-05-20T12:28:13.603Z,100482.29
2023-05-20T12:30:40.596Z,100483.81
2023-05-20T12:33:07.640Z,100482.62
2023-05-20T12:35:38.300Z,100477.88
2023-05-20T12:38:05.182Z,100477.80
2023-05-20T12:40:32.121Z,100474.54
2023-05-20T12:43:01.082Z,100476.67
2023-05-20T12:45:27.933Z,100472.29
2023-05-20T12:47:57.842Z,100473.91
2023-05-20T12:50:25.412Z,100474.23
2023-05-20T12:52:52.260Z,100462.33
2023-05-20T12:55:19.223Z,100462.73
2023-05-20T12:57:46.804Z,100464.15
2023-05-20T13:00:14.156Z,100455.95
2023-05-20T13:02:42.404Z,100455.83
2023-05-20T13:05:09.904Z,100455.24
2023-05-20T13:07:36.930Z,100450.67
2023-05-20T13:10:04.012Z,100454.36
2023-05-20T13:12:31.004Z,100454.67
2023-05-20T13:14:57.884Z,100452.58
2023-05-20T13:17:24.772Z,100454.20
2023-05-20T13:19:51.960Z,100451.12
2023-05-20T13:22:19.562Z,100455.98
2023-05-20T13:24:46.482Z,100448.73
2023-05-20T13:27:13.384Z,100442.11
2023-05-20T13:29:40.159Z,100444.87
2023-05-20T13:32:07.241Z,100446.23
2023-05-20T13:34:34.028Z,100449.65
2023-05-20T13:37:00.823Z,100446.23
2023-05-20T13:39:27.976Z,100454.13
2023-05-20T13:41:55.093Z,100449.34
2023-05-20T13:44:21.935Z,100454.56
2023-05-20T13:46:48.867Z,100452.55
2023-05-20T13:49:15.934Z,100453.08
2023-05-20T13:51:42.671Z,100450.40
2023-05-20T13:54:09.447Z,100454.19
2023-05-20T13:56:36.259Z,100453.00
2023-05-20T13:59:02.995Z,100452.92
2023-05-20T14:01:30.768Z,100449.28
2023-05-20T14:03:57.667Z,100449.01
2023-05-20T14:06:24.953Z,100446.37
2023-05-20T14:08:54.249Z,100450.11
2023-05-20T14:11:21.913Z,100454.91
2023-05-20T14:13:54.828Z,100449.99
2023-05-20T14:16:21.746Z,100447.73
2023-05-20T14:18:48.596Z,100447.79
2023-05-20T14:21:15.635Z,100449.40
2023-05-20T14:23:44.563Z,100449.56
2023-05-20T14:26:11.384Z,100448.46
2023-05-20T14:28:38.306Z,100445.33
2023-05-20T14:31:07.601Z,100453.06
2023-05-20T14:33:35.993Z,100446.33
2023-05-20T14:36:02.939Z,100441.77
2023-05-20T14:38:29.743Z,100438.98
2023-05-20T14:40:56.495Z,100436.54
2023-05-20T14:43:23.284Z,100436.98
2023-05-20T14:45:50.442Z,100436.05
2023-05-20T14:48:17.245Z,100431.58
2023-05-20T14:50:44.092Z,100431.48
2023-05-20T14:53:10.932Z,100426.17
2023-05-20T14:55:37.694Z,100424.78
2023-05-20T14:58:04.489Z,100422.75
2023-05-20T15:00:32.867Z,100422.05
2023-05-20T15:03:00.081Z,100419.70
2023-05-20T15:05:27.055Z,100419.13
2023-05-20T15:07:53.855Z,100410.27
2023-05-20T15:10:21.194Z,100412.83
2023-05-20T15:12:48.087Z,100408.59
2023-05-20T15:15:14.947Z,100400.33
2023-05-20T15:17:41.743Z,100403.42
2023-05-20T15:20:09.747Z,100400.91
2023-05-20T15:22:37.022Z,100404.20
2023-05-20T15:25:04.026Z,100399.16
2023-05-20T15:27:30.904Z,100394.58
2023-05-20T15:29:57.750Z,100399.42
2023-05-20T15:32:24.623Z,100399.83
2023-05-20T15:34:51.518Z,100399.06
2023-05-20T15:37:18.305Z,100398.70
2023-05-20T15:39:45.153Z,100394.36
2023-05-20T15:42:14.151Z,100393.69
2023-05-20T15:44:41.008Z,100391.66
2023-05-20T15:47:07.798Z,100396.16
2023-05-20T15:49:34.657Z,100399.85
2023-05-20T15:52:04.093Z,100395.05
2023-05-20T15:54:32.768Z,100396.69
2023-05-20T15:56:59.686Z,100393.89
2023-05-20T15:59:26.873Z,100398.52
2023-05-20T16:03:03.866Z,100397.77
2023-05-20T16:05:30.643Z,100400.67
2023-05-20T16:07:57.312Z,100404.72
2023-05-20T16:10:26.049Z,100403.91
2023-05-20T16:12:53.275Z,100406.02
2023-05-20T16:15:20.373Z,100405.42
2023-05-20T16:17:47.131Z,100408.13
2023-05-20T16:20:15.909Z,100403.22
2023-05-20T16:22:43.214Z,100398.74
2023-05-20T16:25:10.651Z,100401.47
2023-05-20T16:27:38.122Z,100402.19
2023-05-20T16:30:08.133Z,100405.43
2023-05-20T16:32:35.725Z,100402.54
2023-05-20T16:35:04.524Z,100397.04
2023-05-20T16:37:31.854Z,100395.59
2023-05-20T16:39:58.663Z,100397.05
2023-05-20T16:42:25.469Z,100401.22
2023-05-20T16:44:52.384Z,100401.24
2023-05-20T16:47:19.089Z,100403.23
2023-05-20T16:49:45.862Z,100404.08
2023-05-20T16:52:12.567Z,100403.18
2023-05-20T16:54:39.410Z,100402.17
2023-05-20T16:57:07.013Z,100403.88
2023-05-20T16:59:34.369Z,100403.62
2023-05-20T17:02:01.241Z,100400.95
2023-05-20T17:04:28.157Z,100401.54
2023-05-20T17:06:56.213Z,100402.38
2023-05-20T17:09:22.897Z,100399.13
2023-05-20T17:11:51.276Z,100401.58
2023-05-20T17:14:18.012Z,100407.59
2023-05-20T17:16:45.018Z,100411.18
2023-05-20T17:19:11.748Z,100410.83
2023-05-20T17:21:38.456Z,100410.48
2023-05-20T17:24:05.713Z,100407.81
2023-05-20T17:26:32.492Z,100412.63
2023-05-20T17:28:59.162Z,100412.40
2023-05-20T17:31:25.805Z,100410.30
2023-05-20T17:33:52.541Z,100409.66
2023-05-20T17:36:21.407Z,100411.47
2023-05-20T17:38:49.037Z,100412.45
2023-05-20T17:41:19.337Z,100412.92
2023-05-20T17:43:51.743Z,100415.84
2023-05-20T17:46:18.840Z,100416.17
2023-05-20T17:48:45.502Z,100411.98
2023-05-20T17:51:12.422Z,100408.83
2023-05-20T17:53:38.982Z,100407.69
2023-05-20T17:56:05.679Z,100408.04
2023-05-20T17:58:33.154Z,100406.19
2023-05-20T18:00:59.807Z,100411.23
2023-05-20T18:03:27.268Z,100415.77
2023-05-20T18:05:56.165Z,100418.90
2023-05-20T18:08:24.799Z,100419.77
2023-05-20T18:10:52.104Z,100420.82
2023-05-20T18:13:18.946Z,100420.29
2023-05-20T18:15:46.273Z,100421.59
2023-05-20T18:18:12.922Z,100421.23
2023-05-20T18:20:39.918Z,100430.67
2023-05-20T18:23:06.587Z,100434.38
2023-05-20T18:25:33.296Z,100439.45
2023-05-20T18:27:59.993Z,100440.79
2023-05-20T18:30:27.023Z,100442.87
2023-05-20T18:32:55.256Z,100445.60
2023-05-20T18:35:22.043Z,100450.69
2023-05-20T18:37:48.930Z,100454.50
2023-05-20T18:40:15.866Z,100456.43
2023-05-20T18:42:43.108Z,100459.00
2023-05-20T18:45:10.483Z,100461.70
2023-05-20T18:47:37.300Z,100460.81
2023-05-20T18:50:04.162Z,100460.97
2023-05-20T18:52:31.172Z,100460.72
2023-05-20T18:54:57.721Z,100465.60
2023-05-20T18:57:24.280Z,100467.61
2023-05-20T18:59:51.330Z,100466.55
2023-05-20T19:02:18.031Z,100464.38
2023-05-20T19:04:44.975Z,100462.39
2023-05-20T19:07:12.021Z,100462.10
2023-05-20T19:09:38.697Z,100461.23
2023-05-20T19:12:06.140Z,100467.10
2023-05-20T19:14:33.025Z,100466.30
2023-05-20T19:17:00.712Z,100470.04
2023-05-20T19:19:27.555Z,100470.38
2023-05-20T19:21:54.516Z,100473.85
2023-05-20T19:24:23.442Z,100474.86
2023-05-20T19:26:50.649Z,100475.56
2023-05-20T19:29:17.512Z,100479.54
2023-05-20T19:31:45.369Z,100476.28
2023-05-20T19:34:12.164Z,100476.46
2023-05-20T19:36:41.764Z,100478.18
2023-05-20T19:39:09.289Z,100479.73
2023-05-20T19:41:37.825Z,100479.20
2023-05-20T19:44:05.245Z,100482.36
2023-05-20T19:46:33.446Z,100481.37
2023-05-20T19:49:00.593Z,100475.25
2023-05-20T19:51:27.477Z,100478.92
2023-05-20T19:53:54.124Z,100475.86
2023-05-20T19:56:21.281Z,100475.79
2023-05-20T19:58:47.895Z,100479.80
2023-05-20T20:01:16.570Z,100479.64
2023-05-20T20:03:43.777Z,100479.42
2023-05-20T20:06:10.366Z,100478.54
2023-05-20T20:08:39.887Z,100476.29
2023-05-20T20:11:07.126Z,100479.16
2023-05-20T20:13:34.969Z,100482.84
2023-05-20T20:16:02.252Z,100480.70
2023-05-20T20:18:29.155Z,100479.10
2023-05-20T20:20:58.946Z,100478.69
2023-05-20T20:23:26.431Z,100483.24
2023-05-20T20:25:53.125Z,100485.67
2023-05-20T20:28:19.808Z,100483.40
2023-05-20T20:30:46.439Z,100483.02
2023-05-20T20:33:13.219Z,100478.70
2023-05-20T20:35:39.948Z,100481.14
2023-05-20T20:38:09.102Z,100475.20
2023-05-20T20:40:44.433Z,100473.38
2023-05-20T20:43:19.593Z,100476.84
2023-05-20T20:45:50.325Z,100471.70
2023-05-20T20:48:18.090Z,100473.33
2023-05-20T20:50:47.200Z,100476.22
2023-05-20T20:53:15.853Z,100475.05
2023-05-20T20:55:42.692Z,100477.86
2023-05-20T20:58:09.874Z,100476.13
2023-05-20T21:00:39.381Z,100479.27
2023-05-20T21:03:09.387Z,100484.96
2023-05-20T21:05:36.867Z,100481.20
2023-05-20T21:08:04.895Z,100482.44
2023-05-20T21:10:33.063Z,100481.95
2023-05-20T21:12:59.695Z,100482.20
2023-05-20T21:15:26.794Z,100482.46
2023-05-20T21:17:53.752Z,100482.04
2023-05-20T21:20:21.594Z,100478.20
2023-05-20T21:22:48.980Z,100480.92
2023-05-20T21:25:15.630Z,100479.70
2023-05-20T21:27:43.137Z,100482.93
2023-05-20T21:30:10.944Z,100484.12
2023-05-20T21:32:38.029Z,100482.90
2023-05-20T21:35:05.834Z,100484.16
2023-05-20T21:37:32.866Z,100487.77
2023-05-20T21:40:00.063Z,100487.60
2023-05-20T21:42:26.841Z,100485.70
2023-05-20T21:44:53.602Z,100490.95
2023-05-20T21:47:20.375Z,100492.73
2023-05-20T21:49:47.569Z,100492.42
2023-05-20T21:52:14.509Z,100491.30
2023-05-20T21:54:41.301Z,100490.83
2023-05-20T21:57:07.983Z,100490.00
2023-05-20T21:59:34.692Z,100495.02
2023-05-20T22:02:01.901Z,100496.48
2023-05-20T22:04:29.312Z,100500.30
2023-05-20T22:06:55.972Z,100502.44
2023-05-20T22:09:22.908Z,100504.59
2023-05-20T22:11:50.469Z,100505.56
2023-05-20T22:14:17.611Z,100501.82
2023-05-20T22:16:47.742Z,100499.48
2023-05-20T22:19:15.990Z,100494.20
2023-05-20T22:21:50.200Z,100497.27
2023-05-20T22:24:17.793Z,100502.91
2023-05-20T22:26:45.233Z,100506.19
2023-05-20T22:29:11.833Z,100503.27
2023-05-20T22:31:39.048Z,100498.52
2023-05-20T22:34:05.752Z,100492.69
2023-05-20T22:36:36.779Z,100493.30
2023-05-20T22:39:04.054Z,100490.52
2023-05-20T22:41:31.943Z,100489.42
2023-05-20T22:43:58.711Z,100487.11
2023-05-20T22:46:28.486Z,100490.38
2023-05-20T22:48:57.950Z,100495.45
2023-05-20T22:51:28.233Z,100494.86
2023-05-20T22:53:55.501Z,100493.59
2023-05-20T22:56:23.060Z,100493.43
2023-05-20T22:58:49.742Z,100494.84
2023-05-20T23:01:16.573Z,100494.98
2023-05-20T23:03:46.271Z,100494.28
2023-05-20T23:06:12.887Z,100493.88
2023-05-20T23:08:42.161Z,100492.96
2023-05-20T23:11:08.817Z,100487.85
2023-05-20T23:13:35.522Z,100486.92
2023-05-20T23:16:05.321Z,100481.85
2023-05-20T23:18:32.755Z,100475.35
2023-05-20T23:20:59.990Z,100475.48
2023-05-20T23:23:31.064Z,100472.95
2023-05-20T23:25:59.192Z,100475.84
2023-05-20T23:28:25.869Z,100473.64
2023-05-20T23:30:52.560Z,100473.92
2023-05-20T23:33:24.447Z,100470.40
2023-05-20T23:35:52.416Z,100472.06
2023-05-20T23:38:19.108Z,100469.00
2023-05-20T23:40:45.703Z,100472.69
2023-05-20T23:43:12.673Z,100468.92
2023-05-20T23:45:39.302Z,100466.11
2023-05-20T23:48:09.292Z,100466.06
2023-05-20T23:50:36.131Z,100463.11
2023-05-20T23:53:03.226Z,100461.34
2023-05-20T23:55:31.117Z,100460.83
2023-05-20T23:57:57.746Z,100461.22
